createdAt,value
2018-03-21T00:01:03.647Z,65.53
2018-03-21T00:02:12.574Z,66
2018-03-21T00:03:21.401Z,65.81
2018-03-21T00:04:30.228Z,66.19
2018-03-21T00:05:39.059Z,66
2018-03-21T00:06:47.885Z,66.09
2018-03-21T00:07:56.714Z,66.09
2018-03-21T00:09:05.539Z,66.09
2018-03-21T00:10:14.366Z,65.53
2018-03-21T00:11:23.190Z,65.91
2018-03-21T00:12:32.075Z,65.34
2018-03-21T00:13:40.995Z,65.91
2018-03-21T00:14:49.821Z,66.28
2018-03-21T00:15:58.646Z,65.62
2018-03-21T00:17:07.479Z,65.72
2018-03-21T00:18:16.298Z,65.72
2018-03-21T00:19:25.122Z,65.91
2018-03-21T00:20:34.224Z,65.72
2018-03-21T00:21:43.052Z,65.24
2018-03-21T00:22:52.158Z,65.43
2018-03-21T00:24:00.984Z,65.53
2018-03-21T00:25:09.958Z,65.81
2018-03-21T00:26:18.785Z,65.62
2018-03-21T00:27:27.612Z,66
2018-03-21T00:28:36.445Z,65.62
2018-03-21T00:29:45.549Z,65.62
2018-03-21T00:30:54.710Z,65.62
2018-03-21T00:32:03.535Z,65.62
2018-03-21T00:33:12.638Z,65.53
2018-03-21T00:34:21.465Z,65.72
2018-03-21T00:35:30.294Z,65.53
2018-03-21T00:36:39.118Z,65.72
2018-03-21T00:37:47.951Z,65.62
2018-03-21T00:38:56.779Z,65.53
2018-03-21T00:40:05.613Z,64.96
2018-03-21T00:41:14.432Z,65.72
2018-03-21T00:42:23.261Z,65.43
2018-03-21T00:43:32.084Z,65.05
2018-03-21T00:44:40.911Z,65.05
2018-03-21T00:45:49.738Z,64.96
2018-03-21T00:46:58.562Z,65.34
2018-03-21T00:48:07.492Z,65.15
2018-03-21T00:49:16.867Z,65.34
2018-03-21T00:50:25.968Z,65.05
2018-03-21T00:51:34.796Z,65.24
2018-03-21T00:52:43.623Z,64.67
2018-03-21T00:53:52.720Z,64.77
2018-03-21T00:55:01.551Z,64.96
2018-03-21T00:56:10.374Z,64.77
2018-03-21T00:57:19.200Z,64.96
2018-03-21T00:58:28.023Z,64.58
2018-03-21T00:59:36.848Z,64.36
2018-03-21T01:00:45.674Z,64.58
2018-03-21T01:01:54.653Z,64.29
2018-03-21T01:03:04.133Z,64.64
2018-03-21T01:04:12.959Z,64.29
2018-03-21T01:05:21.885Z,64.54
2018-03-21T01:06:30.708Z,64.54
2018-03-21T01:07:39.534Z,64.64
2018-03-21T01:08:48.361Z,64.17
2018-03-21T01:09:57.188Z,64.26
2018-03-21T01:11:06.017Z,64.54
2018-03-21T01:12:14.853Z,63.7
2018-03-21T01:13:23.952Z,64.36
2018-03-21T01:14:32.775Z,63.98
2018-03-21T01:15:41.602Z,63.79
2018-03-21T01:16:50.703Z,63.89
2018-03-21T01:17:59.531Z,63.79
2018-03-21T01:19:08.357Z,63.6
2018-03-21T01:20:17.180Z,63.89
2018-03-21T01:21:26.007Z,63.6
2018-03-21T01:22:35.135Z,63.89
2018-03-21T01:23:44.237Z,63.79
2018-03-21T01:24:53.070Z,63.98
2018-03-21T01:26:02.449Z,63.98
2018-03-21T01:27:11.274Z,63.79
2018-03-21T01:28:20.199Z,63.98
2018-03-21T01:29:29.022Z,63.7
2018-03-21T01:30:37.849Z,63.89
2018-03-21T01:31:46.675Z,63.89
2018-03-21T01:32:55.500Z,63.98
2018-03-21T01:34:04.751Z,63.32
2018-03-21T01:35:13.852Z,63.79
2018-03-21T01:36:22.956Z,63.6
2018-03-21T01:37:31.779Z,63.42
2018-03-21T01:38:40.877Z,63.98
2018-03-21T01:39:49.806Z,63.51
2018-03-21T01:40:58.905Z,63.79
2018-03-21T01:42:07.730Z,63.42
2018-03-21T01:43:16.555Z,63.89
2018-03-21T01:44:25.382Z,63.51
2018-03-21T01:45:34.206Z,63.51
2018-03-21T01:46:43.034Z,63.51
2018-03-21T01:47:51.860Z,63.6
2018-03-21T01:49:00.685Z,63.42
2018-03-21T01:50:09.512Z,63.6
2018-03-21T01:51:18.639Z,63.23
2018-03-21T01:52:27.464Z,63.23
2018-03-21T01:53:36.574Z,62.94
2018-03-21T01:54:45.391Z,63.04
2018-03-21T01:55:54.217Z,63.23
2018-03-21T01:57:03.140Z,63.04
2018-03-21T01:58:11.966Z,63.23
2018-03-21T01:59:20.795Z,63.04
2018-03-21T02:00:29.617Z,63.51
2018-03-21T02:01:38.441Z,63.42
2018-03-21T02:02:47.368Z,63.42
2018-03-21T02:03:56.193Z,63.04
2018-03-21T02:05:05.019Z,63.51
2018-03-21T02:06:13.845Z,63.23
2018-03-21T02:07:22.672Z,63.04
2018-03-21T02:08:31.697Z,63.6
2018-03-21T02:09:40.525Z,62.94
2018-03-21T02:10:49.628Z,63.51
2018-03-21T02:11:58.729Z,63.32
2018-03-21T02:13:07.554Z,63.13
2018-03-21T02:14:16.676Z,63.04
2018-03-21T02:15:25.501Z,63.23
2018-03-21T02:16:34.325Z,63.04
2018-03-21T02:17:43.151Z,63.04
2018-03-21T02:18:51.981Z,63.23
2018-03-21T02:20:01.135Z,62.75
2018-03-21T02:21:09.969Z,62.75
2018-03-21T02:22:19.065Z,62.66
2018-03-21T02:23:28.441Z,63.04
2018-03-21T02:24:37.265Z,62.66
2018-03-21T02:25:46.192Z,62.75
2018-03-21T02:26:55.294Z,62.75
2018-03-21T02:28:04.121Z,62.66
2018-03-21T02:29:12.948Z,62.75
2018-03-21T02:30:21.777Z,62.37
2018-03-21T02:31:30.599Z,62.09
2018-03-21T02:32:39.428Z,62.37
2018-03-21T02:33:48.254Z,62.09
2018-03-21T02:34:57.078Z,62.56
2018-03-21T02:36:05.903Z,62.37
2018-03-21T02:37:14.779Z,61.9
2018-03-21T02:38:23.890Z,61.99
2018-03-21T02:39:33.008Z,61.9
2018-03-21T02:40:41.832Z,61.99
2018-03-21T02:41:50.658Z,61.61
2018-03-21T02:42:59.925Z,61.33
2018-03-21T02:44:08.753Z,61.24
2018-03-21T02:45:17.855Z,61.24
2018-03-21T02:46:26.681Z,61.05
2018-03-21T02:47:35.519Z,60.67
2018-03-21T02:48:44.390Z,60.58
2018-03-21T02:49:53.496Z,60.96
2018-03-21T02:51:02.884Z,60.86
2018-03-21T02:52:11.713Z,60.86
2018-03-21T02:53:20.538Z,60.67
2018-03-21T02:54:29.363Z,60.3
2018-03-21T02:55:38.755Z,60.58
2018-03-21T02:56:47.583Z,60.01
2018-03-21T02:57:56.426Z,60.2
2018-03-21T02:59:05.559Z,60.46
2018-03-21T03:00:14.690Z,60.11
2018-03-21T03:01:23.512Z,60.27
2018-03-21T03:02:32.348Z,59.89
2018-03-21T03:03:41.468Z,60.17
2018-03-21T03:04:50.297Z,59.89
2018-03-21T03:05:59.401Z,59.98
2018-03-21T03:07:08.228Z,59.98
2018-03-21T03:08:17.056Z,60.08
2018-03-21T03:09:25.882Z,60.08
2018-03-21T03:10:34.988Z,59.6
2018-03-21T03:11:43.814Z,59.98
2018-03-21T03:12:52.641Z,59.7
2018-03-21T03:14:01.464Z,59.79
2018-03-21T03:15:10.295Z,59.89
2018-03-21T03:16:19.123Z,59.89
2018-03-21T03:17:27.954Z,59.51
2018-03-21T03:18:36.773Z,59.13
2018-03-21T03:19:45.597Z,59.13
2018-03-21T03:20:54.426Z,59.22
2018-03-21T03:22:03.250Z,59.51
2018-03-21T03:23:12.373Z,58.94
2018-03-21T03:24:21.199Z,58.94
2018-03-21T03:25:30.023Z,58.84
2018-03-21T03:26:38.845Z,58.94
2018-03-21T03:27:47.671Z,59.32
2018-03-21T03:28:56.826Z,58.84
2018-03-21T03:30:05.655Z,58.56
2018-03-21T03:31:14.478Z,58.65
2018-03-21T03:32:23.308Z,58.56
2018-03-21T03:33:32.137Z,58.75
2018-03-21T03:34:41.335Z,58.56
2018-03-21T03:35:50.160Z,58.65
2018-03-21T03:36:58.985Z,58.47
2018-03-21T03:38:07.809Z,58.56
2018-03-21T03:39:16.631Z,58.37
2018-03-21T03:40:25.608Z,58.28
2018-03-21T03:41:34.434Z,58.28
2018-03-21T03:42:43.261Z,58.28
2018-03-21T03:43:52.084Z,58.18
2018-03-21T03:45:00.911Z,58
2018-03-21T03:46:10.263Z,57.81
2018-03-21T03:47:19.091Z,58.09
2018-03-21T03:48:27.916Z,58.09
2018-03-21T03:49:36.741Z,57.24
2018-03-21T03:50:45.566Z,57.53
2018-03-21T03:51:54.445Z,57.24
2018-03-21T03:53:03.267Z,56.77
2018-03-21T03:54:12.094Z,56.96
2018-03-21T03:55:20.918Z,55.92
2018-03-21T03:56:29.742Z,56.01
2018-03-21T03:57:38.767Z,56.11
2018-03-21T03:58:47.593Z,55.82
2018-03-21T03:59:56.428Z,55.73
2018-03-21T04:01:05.407Z,55.26
2018-03-21T04:02:14.788Z,55.35
2018-03-21T04:03:23.662Z,55.44
2018-03-21T04:04:32.490Z,55.44
2018-03-21T04:05:41.315Z,55.35
2018-03-21T04:06:50.419Z,55.73
2018-03-21T04:07:59.248Z,55.44
2018-03-21T04:09:08.071Z,55.73
2018-03-21T04:10:16.895Z,55.44
2018-03-21T04:11:26.267Z,55.73
2018-03-21T04:12:35.094Z,55.63
2018-03-21T04:13:43.928Z,55.16
2018-03-21T04:14:52.901Z,55.35
2018-03-21T04:16:01.731Z,55.44
2018-03-21T04:17:10.557Z,55.54
2018-03-21T04:18:19.381Z,55.63
2018-03-21T04:19:28.203Z,55.35
2018-03-21T04:20:37.128Z,55.73
2018-03-21T04:21:46.227Z,55.63
2018-03-21T04:22:55.050Z,55.73
2018-03-21T04:24:03.881Z,55.54
2018-03-21T04:25:12.706Z,55.54
2018-03-21T04:26:21.539Z,55.26
2018-03-21T04:27:30.644Z,55.54
2018-03-21T04:28:39.468Z,55.63
2018-03-21T04:29:48.567Z,55.54
2018-03-21T04:30:57.397Z,55.35
2018-03-21T04:32:06.272Z,55.16
2018-03-21T04:33:15.096Z,55.26
2018-03-21T04:34:23.927Z,55.63
2018-03-21T04:35:33.322Z,55.54
2018-03-21T04:36:42.142Z,55.44
2018-03-21T04:37:51.248Z,55.35
2018-03-21T04:39:00.074Z,55.35
2018-03-21T04:40:08.899Z,55.63
2018-03-21T04:41:17.723Z,55.35
2018-03-21T04:42:26.546Z,54.97
2018-03-21T04:43:35.420Z,54.69
2018-03-21T04:44:44.243Z,54.79
2018-03-21T04:45:53.072Z,54.69
2018-03-21T04:47:02.172Z,54.6
2018-03-21T04:48:10.995Z,54.97
2018-03-21T04:49:20.122Z,54.5
2018-03-21T04:50:28.945Z,55.07
2018-03-21T04:51:37.768Z,54.69
2018-03-21T04:52:46.595Z,54.97
2018-03-21T04:53:55.706Z,54.69
2018-03-21T04:55:04.835Z,54.88
2018-03-21T04:56:13.657Z,54.79
2018-03-21T04:57:22.757Z,54.69
2018-03-21T04:58:31.581Z,54.69
2018-03-21T04:59:40.684Z,54.41
2018-03-21T05:00:49.561Z,54.6
2018-03-21T05:01:58.445Z,54.69
2018-03-21T05:03:07.206Z,54.6
2018-03-21T05:04:16.306Z,54.69
2018-03-21T05:05:25.131Z,55.07
2018-03-21T05:06:34.105Z,54.88
2018-03-21T05:07:42.933Z,54.6
2018-03-21T05:08:51.757Z,54.13
2018-03-21T05:10:00.582Z,54.5
2018-03-21T05:11:09.411Z,54.69
2018-03-21T05:12:18.234Z,53.94
2018-03-21T05:13:27.058Z,53.94
2018-03-21T05:14:35.881Z,53.46
2018-03-21T05:15:44.983Z,53.46
2018-03-21T05:16:53.811Z,53.18
2018-03-21T05:18:02.783Z,52.7
2018-03-21T05:19:11.609Z,52.7
2018-03-21T05:20:20.434Z,52.23
2018-03-21T05:21:29.264Z,52.14
2018-03-21T05:22:38.086Z,51.76
2018-03-21T05:23:47.060Z,51.86
2018-03-21T05:24:55.887Z,51.01
2018-03-21T05:26:04.989Z,51.1
2018-03-21T05:27:13.811Z,51.29
2018-03-21T05:28:22.640Z,51.1
2018-03-21T05:29:31.568Z,50.72
2018-03-21T05:30:40.392Z,50.72
2018-03-21T05:31:49.216Z,50.82
2018-03-21T05:32:58.040Z,50.06
2018-03-21T05:34:06.866Z,49.97
2018-03-21T05:35:15.792Z,49.68
2018-03-21T05:36:24.615Z,49.3
2018-03-21T05:37:33.441Z,49.21
2018-03-21T05:38:42.264Z,48.74
2018-03-21T05:39:51.088Z,48.93
2018-03-21T05:41:00.064Z,48.36
2018-03-21T05:42:08.896Z,47.99
2018-03-21T05:43:17.724Z,47.99
2018-03-21T05:44:26.550Z,47.7
2018-03-21T05:45:35.653Z,47.61
2018-03-21T05:46:44.628Z,47.04
2018-03-21T05:47:53.465Z,46.56
2018-03-21T05:49:02.286Z,46.09
2018-03-21T05:50:11.111Z,45.62
2018-03-21T05:51:19.936Z,45.15
2018-03-21T05:52:29.061Z,44.77
2018-03-21T05:53:37.886Z,44.21
2018-03-21T05:54:46.711Z,43.73
2018-03-21T05:55:55.536Z,43.24
2018-03-21T05:57:04.639Z,42.11
2018-03-21T05:58:13.714Z,42.13
2018-03-21T05:59:22.537Z,41.56
2018-03-21T06:00:31.366Z,40.99
2018-03-21T06:01:40.190Z,41.25
2018-03-21T06:02:49.013Z,40.8
2018-03-21T06:03:57.993Z,40.71
2018-03-21T06:05:06.812Z,40.33
2018-03-21T06:06:15.647Z,40.05
2018-03-21T06:07:24.462Z,40.05
2018-03-21T06:08:33.561Z,39.86
2018-03-21T06:09:42.857Z,39.95
2018-03-21T06:10:52.289Z,39.76
2018-03-21T06:12:01.115Z,39.48
2018-03-21T06:13:09.939Z,39.29
2018-03-21T06:14:18.762Z,37.88
2018-03-21T06:15:27.638Z,37.4
2018-03-21T06:16:36.462Z,36.54
2018-03-21T06:17:45.288Z,35.89
2018-03-21T06:18:54.111Z,34.55
2018-03-21T06:20:02.936Z,33.8
2018-03-21T06:21:11.861Z,33.15
2018-03-21T06:22:20.687Z,33.06
2018-03-21T06:23:29.511Z,32.68
2018-03-21T06:24:38.334Z,32.67
2018-03-21T06:25:47.162Z,32.48
2018-03-21T06:26:56.372Z,32.02
2018-03-21T06:28:05.203Z,31.83
2018-03-21T06:29:14.301Z,32.02
2018-03-21T06:30:23.126Z,31.64
2018-03-21T06:31:32.241Z,31.45
2018-03-21T06:32:41.371Z,31.26
2018-03-21T06:33:50.196Z,31.17
2018-03-21T06:34:59.022Z,30.88
2018-03-21T06:36:07.848Z,30.88
2018-03-21T06:37:16.953Z,30.6
2018-03-21T06:38:25.829Z,30.41
2018-03-21T06:39:34.931Z,30.32
2018-03-21T06:40:43.753Z,29.57
2018-03-21T06:41:52.859Z,28.9
2018-03-21T06:43:01.690Z,28.9
2018-03-21T06:44:10.991Z,28.05
2018-03-21T06:45:19.817Z,27.86
2018-03-21T06:46:28.639Z,27.48
2018-03-21T06:47:37.464Z,26.82
2018-03-21T06:48:46.292Z,25.6
2018-03-21T06:49:55.419Z,25.12
2018-03-21T06:51:04.243Z,24.74
2018-03-21T06:52:13.070Z,24.65
2018-03-21T06:53:21.892Z,24.08
2018-03-21T06:54:30.717Z,24.37
2018-03-21T06:55:39.924Z,23.71
2018-03-21T06:56:48.751Z,23.71
2018-03-21T06:57:57.578Z,23.33
2018-03-21T06:59:06.405Z,23.61
2018-03-21T07:00:15.229Z,23.33
2018-03-21T07:01:24.454Z,22.95
2018-03-21T07:02:33.317Z,22.86
2018-03-21T07:03:42.110Z,23.05
2018-03-21T07:04:50.935Z,22.57
2018-03-21T07:06:00.046Z,22.67
2018-03-21T07:07:08.972Z,22.19
2018-03-21T07:08:18.077Z,21.63
2018-03-21T07:09:27.182Z,21.25
2018-03-21T07:10:36.011Z,20.68
2018-03-21T07:11:44.839Z,20.68
2018-03-21T07:12:53.813Z,20.68
2018-03-21T07:14:02.644Z,20.5
2018-03-21T07:15:11.464Z,20.5
2018-03-21T07:16:20.289Z,20.21
2018-03-21T07:17:29.160Z,20.03
2018-03-21T07:18:38.233Z,20.22
2018-03-21T07:19:47.053Z,19.84
2018-03-21T07:20:56.157Z,19.75
2018-03-21T07:22:04.982Z,19.65
2018-03-21T07:23:14.144Z,19.84
2018-03-21T07:24:23.013Z,19.46
2018-03-21T07:25:31.840Z,19.56
2018-03-21T07:26:40.945Z,19.37
2018-03-21T07:27:50.050Z,19.65
2018-03-21T07:28:58.878Z,19.46
2018-03-21T07:30:07.855Z,19.46
2018-03-21T07:31:16.681Z,19.09
2018-03-21T07:32:25.509Z,19.18
2018-03-21T07:33:34.339Z,19.18
2018-03-21T07:34:43.161Z,19.18
2018-03-21T07:35:52.316Z,19.18
2018-03-21T07:37:01.146Z,19.27
2018-03-21T07:38:09.981Z,19.37
2018-03-21T07:39:18.808Z,19.46
2018-03-21T07:40:27.633Z,19.27
2018-03-21T07:41:36.460Z,19.37
2018-03-21T07:42:45.287Z,19.37
2018-03-21T07:43:54.393Z,19.18
2018-03-21T07:45:03.279Z,18.99
2018-03-21T07:46:12.048Z,18.62
2018-03-21T07:47:21.729Z,18.8
2018-03-21T07:48:30.835Z,18.9
2018-03-21T07:49:39.942Z,18.8
2018-03-21T07:50:48.794Z,19.18
2018-03-21T07:51:57.596Z,19.09
2018-03-21T07:53:06.523Z,19.18
2018-03-21T07:54:15.352Z,19.09
2018-03-21T07:55:24.179Z,18.71
2018-03-21T07:56:33.282Z,18.8
2018-03-21T07:57:42.110Z,18.53
2018-03-21T07:58:51.138Z,18.62
2018-03-21T07:59:59.969Z,18.72
2018-03-21T08:01:08.794Z,18.81
2018-03-21T08:02:17.624Z,19.29
2018-03-21T08:03:26.450Z,19.29
2018-03-21T08:04:35.278Z,19.38
2018-03-21T08:05:44.104Z,19.29
2018-03-21T08:06:52.935Z,19.19
2018-03-21T08:08:01.766Z,19.19
2018-03-21T08:09:10.597Z,19.29
2018-03-21T08:10:19.526Z,19.1
2018-03-21T08:11:28.355Z,19.1
2018-03-21T08:12:37.499Z,19.19
2018-03-21T08:13:46.602Z,18.72
2018-03-21T08:14:55.429Z,19.1
2018-03-21T08:16:04.899Z,18.72
2018-03-21T08:17:13.809Z,19
2018-03-21T08:18:22.774Z,19.1
2018-03-21T08:19:31.640Z,19
2018-03-21T08:20:40.498Z,18.91
2018-03-21T08:21:49.713Z,18.81
2018-03-21T08:22:58.587Z,18.53
2018-03-21T08:24:08.537Z,18.91
2018-03-21T08:25:17.848Z,18.81
2018-03-21T08:26:27.010Z,18.62
2018-03-21T08:27:36.143Z,19.3
2018-03-21T08:28:45.312Z,19.29
2018-03-21T08:29:54.184Z,19.2
2018-03-21T08:31:03.286Z,19.58
2018-03-21T08:32:12.321Z,19.49
2018-03-21T08:33:21.309Z,19.39
2018-03-21T08:34:30.266Z,19.2
2018-03-21T08:35:39.154Z,19.49
2018-03-21T08:36:48.530Z,19.39
2018-03-21T08:37:57.966Z,19.2
2018-03-21T08:39:07.094Z,19.58
2018-03-21T08:40:16.177Z,19.77
2018-03-21T08:41:25.072Z,20.06
2018-03-21T08:42:34.346Z,20.06
2018-03-21T08:43:43.424Z,19.87
2018-03-21T08:44:52.582Z,19.49
2018-03-21T08:46:01.738Z,19.49
2018-03-21T08:47:11.025Z,19.3
2018-03-21T08:48:19.942Z,19.3
2018-03-21T08:49:29.179Z,19.11
2018-03-21T08:50:38.730Z,18.92
2018-03-21T08:51:47.650Z,18.92
2018-03-21T08:52:56.976Z,18.63
2018-03-21T08:54:05.842Z,18.54
2018-03-21T08:55:14.957Z,18.92
2018-03-21T08:56:24.419Z,18.92
2018-03-21T08:57:33.541Z,19.2
2018-03-21T08:58:42.601Z,19.58
2018-03-21T08:59:52.076Z,19.58
2018-03-21T09:01:00.960Z,19.49
2018-03-21T09:02:10.459Z,19.49
2018-03-21T09:03:20.294Z,19.49
2018-03-21T09:04:29.333Z,20.06
2018-03-21T09:05:38.297Z,20.06
2018-03-21T09:06:47.436Z,20.25
2018-03-21T09:07:56.415Z,20.25
2018-03-21T09:09:05.768Z,20.25
2018-03-21T09:10:14.674Z,20.92
2018-03-21T09:11:24.588Z,20.54
2018-03-21T09:12:33.990Z,20.54
2018-03-21T09:13:43.681Z,20.73
2018-03-21T09:14:53.263Z,20.92
2018-03-21T09:16:03.092Z,21.01
2018-03-21T09:17:12.524Z,20.82
2018-03-21T09:18:21.625Z,20.92
2018-03-21T09:19:30.495Z,20.73
2018-03-21T09:20:39.644Z,21.01
2018-03-21T09:21:49.076Z,21.39
2018-03-21T09:22:58.450Z,21.67
2018-03-21T09:24:07.643Z,21.67
2018-03-21T09:25:16.525Z,21.86
2018-03-21T09:26:25.734Z,21.67
2018-03-21T09:27:35.096Z,21.48
2018-03-21T09:28:44.476Z,21.67
2018-03-21T09:29:53.677Z,21.58
2018-03-21T09:31:03.113Z,22.24
2018-03-21T09:32:12.531Z,22.24
2018-03-21T09:33:21.405Z,22.24
2018-03-21T09:34:30.740Z,22.24
2018-03-21T09:35:40.096Z,22.24
2018-03-21T09:36:49.482Z,22.14
2018-03-21T09:37:58.382Z,22.24
2018-03-21T09:39:07.934Z,22.43
2018-03-21T09:40:17.090Z,22.62
2018-03-21T09:41:25.941Z,22.62
2018-03-21T09:42:35.494Z,22.63
2018-03-21T09:45:23.513Z,23.09
2018-03-21T09:46:32.662Z,23.09
2018-03-21T09:47:42.312Z,23.1
2018-03-21T09:48:51.836Z,23.01
2018-03-21T09:50:00.711Z,23.48
2018-03-21T09:51:09.918Z,23.1
2018-03-21T09:52:18.965Z,23.1
2018-03-21T09:53:28.073Z,23.77
2018-03-21T09:54:36.966Z,24.24
2018-03-21T09:55:45.799Z,24.24
2018-03-21T09:56:54.628Z,24.71
2018-03-21T09:58:03.461Z,25
2018-03-21T09:59:12.291Z,24.9
2018-03-21T10:00:21.221Z,24.81
2018-03-21T10:01:30.350Z,25.57
2018-03-21T10:02:39.177Z,26.04
2018-03-21T10:03:48.060Z,26.24
2018-03-21T10:04:57.238Z,26.72
2018-03-21T10:06:06.158Z,26.9
2018-03-21T10:07:15.289Z,27.85
2018-03-21T10:08:24.496Z,29.18
2018-03-21T10:09:33.436Z,29.94
2018-03-21T10:10:42.328Z,30.6
2018-03-21T10:11:51.354Z,31.45
2018-03-21T10:13:00.245Z,32.02
2018-03-21T10:14:09.195Z,32.68
2018-03-21T10:15:18.323Z,32.5
2018-03-21T10:16:27.228Z,33.35
2018-03-21T10:17:36.121Z,33.16
2018-03-21T10:18:45.198Z,34.01
2018-03-21T10:19:54.098Z,34.01
2018-03-21T10:21:03.061Z,34.67
2018-03-21T10:22:11.959Z,34.58
2018-03-21T10:24:59.547Z,37.33
2018-03-21T10:26:08.967Z,37.33
2018-03-21T10:27:17.910Z,38.18
2018-03-21T10:28:26.959Z,39.32
2018-03-21T10:29:35.856Z,39.13
2018-03-21T10:30:44.774Z,39.41
2018-03-21T10:31:53.703Z,39.6
2018-03-21T10:33:02.637Z,39.41
2018-03-21T10:34:11.790Z,40.09
2018-03-21T10:35:20.666Z,41.14
2018-03-21T10:36:29.586Z,41.71
2018-03-21T10:37:38.508Z,41.52
2018-03-21T10:38:47.484Z,42.18
2018-03-21T10:39:56.626Z,43.88
2018-03-21T10:41:05.777Z,43.98
2018-03-21T10:42:14.934Z,44.27
2018-03-21T10:43:23.861Z,44.27
2018-03-21T10:44:32.795Z,44.46
2018-03-21T10:45:42.513Z,47.02
2018-03-21T10:46:51.385Z,46.73
2018-03-21T10:48:00.337Z,46.54
2018-03-21T10:49:09.851Z,47.02
2018-03-21T10:50:18.809Z,47.2
2018-03-21T10:51:27.855Z,47.3
2018-03-21T10:52:39.036Z,48.34
2018-03-21T10:53:45.896Z,48.54
2018-03-21T10:54:54.870Z,49.1
2018-03-21T10:56:03.960Z,49.19
2018-03-21T10:57:12.908Z,50.15
2018-03-21T10:58:22.104Z,50.9
2018-03-21T10:59:31.001Z,51.09
2018-03-21T11:00:39.903Z,52.06
2018-03-21T11:01:48.981Z,53.68
2018-03-21T11:02:58.363Z,53.77
2018-03-21T11:04:07.231Z,54.72
2018-03-21T11:05:16.118Z,56.43
2018-03-21T11:06:25.279Z,55.96
2018-03-21T11:07:34.259Z,56.71
2018-03-21T11:08:43.161Z,57.66
2018-03-21T11:09:52.151Z,57.76
2018-03-21T11:11:01.580Z,58.61
2018-03-21T11:12:11.010Z,59.56
2018-03-21T11:13:19.905Z,59.97
2018-03-21T11:14:29.319Z,60.92
2018-03-21T11:15:38.504Z,62.05
2018-03-21T11:16:47.609Z,63.01
2018-03-21T11:17:56.647Z,63.1
2018-03-21T11:19:05.636Z,63.17
2018-03-21T11:20:14.746Z,63.1
2018-03-21T11:21:23.835Z,63.2
2018-03-21T11:22:32.729Z,63.29
2018-03-21T11:23:41.641Z,63.29
2018-03-21T11:24:50.743Z,63.48
2018-03-21T11:25:59.818Z,63.86
2018-03-21T11:27:09.420Z,63.86
2018-03-21T11:28:18.323Z,63.86
2018-03-21T11:29:27.245Z,64.62
2018-03-21T11:30:36.386Z,65
2018-03-21T11:31:45.693Z,66.55
2018-03-21T11:32:54.599Z,66.33
2018-03-21T11:34:03.538Z,66.52
2018-03-21T11:35:13.194Z,66.64
2018-03-21T11:36:22.073Z,66.74
2018-03-21T11:37:31.567Z,68.16
2018-03-21T11:38:40.808Z,68.26
2018-03-21T11:39:49.925Z,68.16
2018-03-21T11:40:58.814Z,68.44
2018-03-21T11:42:08.016Z,68.64
2018-03-21T11:43:16.948Z,68.64
2018-03-21T11:44:26.127Z,68.44
2018-03-21T11:45:34.962Z,68.73
2018-03-21T11:46:43.836Z,68.64
2018-03-21T11:47:52.914Z,68.73
2018-03-21T11:49:02.160Z,69.3
2018-03-21T11:50:11.054Z,69.46
2018-03-21T11:51:20.165Z,69.17
2018-03-21T11:52:29.761Z,69.17
2018-03-21T11:53:39.137Z,69.11
2018-03-21T11:54:48.532Z,69.02
2018-03-21T11:55:57.658Z,69.59
2018-03-21T11:57:07.226Z,70.06
2018-03-21T11:58:16.698Z,70.82
2018-03-21T11:59:25.724Z,71.3
2018-03-21T12:00:34.966Z,71.67
2018-03-21T12:01:43.864Z,71.86
2018-03-21T12:02:53.313Z,71.86
2018-03-21T12:04:02.258Z,71.96
2018-03-21T12:05:11.930Z,71.39
2018-03-21T12:06:21.619Z,72.25
2018-03-21T12:07:32.018Z,71.96
2018-03-21T12:08:40.959Z,72.06
2018-03-21T12:09:49.827Z,72.53
2018-03-21T12:10:58.692Z,72.44
2018-03-21T12:12:07.621Z,72.44
2018-03-21T12:13:16.465Z,72.34
2018-03-21T12:14:25.606Z,72.25
2018-03-21T12:15:35.050Z,72.44
2018-03-21T12:16:43.978Z,73.19
2018-03-21T12:17:52.912Z,73.38
2018-03-21T12:19:01.748Z,73.48
2018-03-21T12:20:10.583Z,74.24
2018-03-21T12:21:19.420Z,73.86
2018-03-21T12:22:28.253Z,74.62
2018-03-21T12:23:37.188Z,74.52
2018-03-21T12:24:46.022Z,74.15
2018-03-21T12:25:54.858Z,75.7
2018-03-21T12:27:03.692Z,75.67
2018-03-21T12:28:12.524Z,76.61
2018-03-21T12:29:21.357Z,76.56
2018-03-21T12:30:30.190Z,76.42
2018-03-21T12:31:39.022Z,76.61
2018-03-21T12:32:47.893Z,76.61
2018-03-21T12:33:56.702Z,76.65
2018-03-21T12:35:05.588Z,76.52
2018-03-21T12:36:14.425Z,76.75
2018-03-21T12:37:23.262Z,76.75
2018-03-21T12:38:32.379Z,77.12
2018-03-21T12:39:41.211Z,77.51
2018-03-21T12:40:50.146Z,79.31
2018-03-21T12:41:58.981Z,78.64
2018-03-21T12:43:07.816Z,79.03
2018-03-21T12:44:16.648Z,79.69
2018-03-21T12:45:25.487Z,80.16
2018-03-21T12:46:34.373Z,79.6
2018-03-21T12:47:43.208Z,79.79
2018-03-21T12:48:52.040Z,80.45
2018-03-21T12:50:00.968Z,80.55
2018-03-21T12:51:10.202Z,81.12
2018-03-21T12:52:19.037Z,81.21
2018-03-21T12:53:28.148Z,80.93
2018-03-21T12:54:36.982Z,81.78
2018-03-21T12:55:45.885Z,81.07
2018-03-21T12:56:54.650Z,81.07
2018-03-21T12:58:03.769Z,81.74
2018-03-21T12:59:12.608Z,81.49
2018-03-21T13:00:21.440Z,81.36
2018-03-21T13:01:30.279Z,81.45
2018-03-21T13:02:39.106Z,81.87
2018-03-21T13:03:48.215Z,81.87
2018-03-21T13:04:57.050Z,81.4
2018-03-21T13:06:06.446Z,81.4
2018-03-21T13:07:15.283Z,81.49
2018-03-21T13:08:24.127Z,81.4
2018-03-21T13:09:33.261Z,81.59
2018-03-21T13:10:42.107Z,81.3
2018-03-21T13:11:51.007Z,81.97
2018-03-21T13:12:59.842Z,81.3
2018-03-21T13:14:08.677Z,81.78
2018-03-21T13:15:17.510Z,81.59
2018-03-21T13:16:26.827Z,81.02
2018-03-21T13:17:36.277Z,81.3
2018-03-21T13:18:45.064Z,81.78
2018-03-21T13:19:54.195Z,81.68
2018-03-21T13:21:03.036Z,81.4
2018-03-21T13:22:11.911Z,81.78
2018-03-21T13:23:20.768Z,81.68
2018-03-21T13:24:29.603Z,81.68
2018-03-21T13:25:38.445Z,81.68
2018-03-21T13:26:47.345Z,81.59
2018-03-21T13:27:56.180Z,81.59
2018-03-21T13:29:05.293Z,82.07
2018-03-21T13:30:14.128Z,82.35
2018-03-21T13:31:22.962Z,82.35
2018-03-21T13:32:31.797Z,82.45
2018-03-21T13:33:40.633Z,82.54
2018-03-21T13:34:49.466Z,82.54
2018-03-21T13:35:58.301Z,82.92
2018-03-21T13:37:07.135Z,83.11
2018-03-21T13:38:16.647Z,83.01
2018-03-21T13:39:25.481Z,83.01
2018-03-21T13:40:34.316Z,82.92
2018-03-21T13:41:43.150Z,82.54
2018-03-21T13:42:51.984Z,82.54
2018-03-21T13:44:01.070Z,82.82
2018-03-21T13:45:09.906Z,82.64
2018-03-21T13:46:19.349Z,82.73
2018-03-21T13:47:28.129Z,82.45
2018-03-21T13:48:36.963Z,83.01
2018-03-21T13:49:45.847Z,82.64
2018-03-21T13:50:54.682Z,82.16
2018-03-21T13:52:03.518Z,81.78
2018-03-21T13:53:12.349Z,82.26
2018-03-21T13:54:21.182Z,82.26
2018-03-21T13:55:30.014Z,82.73
2018-03-21T13:56:38.848Z,82.45
2018-03-21T13:57:47.688Z,82.45
2018-03-21T13:58:56.516Z,82.35
2018-03-21T14:00:05.352Z,81.97
2018-03-21T14:01:14.487Z,82.26
2018-03-21T14:02:23.322Z,82.92
2018-03-21T14:03:32.164Z,82.68
2018-03-21T14:04:40.995Z,82.54
2018-03-21T14:05:49.834Z,82.92
2018-03-21T14:06:58.960Z,83.01
2018-03-21T14:08:07.771Z,83.06
2018-03-21T14:09:16.611Z,82.92
2018-03-21T14:10:25.445Z,82.64
2018-03-21T14:11:34.317Z,83.3
2018-03-21T14:12:43.661Z,82.92
2018-03-21T14:13:52.527Z,82.92
2018-03-21T14:15:01.640Z,82.64
2018-03-21T14:16:10.474Z,82.73
2018-03-21T14:17:19.991Z,82.35
2018-03-21T14:20:08.041Z,82.35
2018-03-21T14:21:16.881Z,82.64
2018-03-21T14:22:26.046Z,82.58
2018-03-21T14:23:34.981Z,81.92
2018-03-21T14:24:43.814Z,81.82
2018-03-21T14:25:52.647Z,81.92
2018-03-21T14:27:01.482Z,82.01
2018-03-21T14:28:10.316Z,82.39
2018-03-21T14:29:19.154Z,82.2
2018-03-21T14:30:27.985Z,82.49
2018-03-21T14:31:36.819Z,82.1
2018-03-21T14:32:45.659Z,82.1
2018-03-21T14:33:54.496Z,81.73
2018-03-21T14:35:03.332Z,81.63
2018-03-21T14:36:12.167Z,82.01
2018-03-21T14:37:21.290Z,81.92
2018-03-21T14:38:30.119Z,81.92
2018-03-21T14:39:38.954Z,82.39
2018-03-21T14:40:48.216Z,82.07
2018-03-21T14:41:57.050Z,82.35
2018-03-21T14:43:06.166Z,82.45
2018-03-21T14:44:15.273Z,82.45
2018-03-21T14:45:24.109Z,82.07
2018-03-21T14:46:33.292Z,82.54
2018-03-21T14:47:42.142Z,82.35
2018-03-21T14:48:51.251Z,82.64
2018-03-21T14:50:00.090Z,82.45
2018-03-21T14:51:08.922Z,82.26
2018-03-21T14:52:17.906Z,82.35
2018-03-21T14:53:26.743Z,82.35
2018-03-21T14:54:35.576Z,82.16
2018-03-21T14:55:44.412Z,82.64
2018-03-21T14:56:53.245Z,81.97
2018-03-21T14:58:02.512Z,82.01